createdAt,value
2017-04-01T00:00:02.320Z,45.09
2017-04-01T00:00:24.065Z,45.45
2017-04-01T00:00:45.782Z,45.82
2017-04-01T00:01:07.466Z,45.64
2017-04-01T00:01:29.201Z,45.60
2017-04-01T00:01:50.990Z,45.58
2017-04-01T00:02:12.728Z,45.60
2017-04-01T00:02:34.484Z,46.74
2017-04-01T00:02:56.197Z,47.73
2017-04-01T00:03:17.901Z,47.95
2017-04-01T00:03:39.605Z,47.81
2017-04-01T00:04:01.307Z,47.54
2017-04-01T00:04:23.012Z,47.26
2017-04-01T00:04:54.263Z,46.84
2017-04-01T00:05:25.525Z,46.20
2017-04-01T00:05:47.249Z,45.75
2017-04-01T00:06:49.790Z,45.35
2017-04-01T00:07:11.510Z,45.46
2017-04-01T00:07:38.015Z,45.11
2017-04-01T00:07:59.748Z,45.20
2017-04-01T00:08:21.495Z,45.26
2017-04-01T00:08:48.010Z,45.49
2017-04-01T00:09:09.750Z,45.41
2017-04-01T00:09:31.465Z,45.18
2017-04-01T00:09:57.949Z,45.32
2017-04-01T00:10:19.665Z,45.05
2017-04-01T00:10:41.421Z,44.90
2017-04-01T00:11:07.947Z,45.21
2017-04-01T00:11:29.678Z,45.35
2017-04-01T00:11:51.420Z,44.67
2017-04-01T00:12:13.139Z,44.51
2017-04-01T00:12:34.924Z,44.79
2017-04-01T00:12:56.662Z,44.77
2017-04-01T00:13:18.380Z,45.25
2017-04-01T00:13:40.107Z,44.96
2017-04-01T00:14:01.859Z,44.73
2017-04-01T00:14:23.722Z,44.92
2017-04-01T00:15:22.087Z,45.07
2017-04-01T00:15:43.796Z,44.48
2017-04-01T00:16:44.751Z,45.15
2017-04-01T00:17:06.447Z,45.18
2017-04-01T00:18:04.802Z,45.63
2017-04-01T00:19:39.640Z,46.37
2017-04-01T00:20:01.333Z,46.29
2017-04-01T00:20:23.080Z,46.24
2017-04-01T00:20:44.822Z,46.67
2017-04-01T00:21:06.558Z,46.99
2017-04-01T00:21:28.283Z,46.92
2017-04-01T00:21:50.005Z,47.06
2017-04-01T00:22:11.733Z,46.77
2017-04-01T00:22:33.451Z,46.62
2017-04-01T00:22:59.957Z,46.43
2017-04-01T00:23:21.696Z,46.29
2017-04-01T00:24:20.050Z,46.82
2017-04-01T00:25:59.112Z,47.99
2017-04-01T00:26:20.844Z,48.28
2017-04-01T00:26:42.558Z,48.41
2017-04-01T00:27:04.277Z,48.03
2017-04-01T00:27:26.015Z,47.84
2017-04-01T00:27:47.702Z,48.06
2017-04-01T00:28:09.416Z,48.36
2017-04-01T00:29:11.929Z,48.58
2017-04-01T00:29:33.722Z,48.54
2017-04-01T00:29:55.477Z,48.79
2017-04-01T00:30:17.223Z,48.70
2017-04-01T00:30:38.981Z,48.61
2017-04-01T00:31:00.682Z,48.69
2017-04-01T00:31:22.406Z,48.68
2017-04-01T00:31:44.131Z,48.76
2017-04-01T00:32:05.852Z,48.68
2017-04-01T00:32:27.583Z,48.41
2017-04-01T00:32:49.340Z,48.46
2017-04-01T00:33:11.083Z,48.22
2017-04-01T00:33:32.830Z,48.46
2017-04-01T00:33:54.571Z,48.70
2017-04-01T00:34:16.294Z,48.59
2017-04-01T00:34:38.019Z,48.64
2017-04-01T00:34:59.763Z,48.63
2017-04-01T00:35:21.517Z,48.46
2017-04-01T00:35:43.257Z,48.60
2017-04-01T00:36:04.999Z,48.52
2017-04-01T00:36:26.733Z,48.42
2017-04-01T00:36:48.455Z,48.25
2017-04-01T00:37:10.172Z,48.00
2017-04-01T00:37:31.892Z,48.04
2017-04-01T00:37:53.622Z,48.06
2017-04-01T00:38:15.355Z,48.04
2017-04-01T00:38:37.122Z,48.19
2017-04-01T00:38:58.855Z,47.98
2017-04-01T00:39:20.620Z,47.97
2017-04-01T00:39:42.347Z,47.99
2017-04-01T00:40:04.086Z,48.75
2017-04-01T00:40:25.808Z,49.27
2017-04-01T00:40:47.523Z,49.37
2017-04-01T00:41:09.330Z,49.34
2017-04-01T00:41:31.061Z,49.22
2017-04-01T00:41:52.781Z,49.22
2017-04-01T00:42:14.500Z,49.17
2017-04-01T00:42:36.221Z,49.13
2017-04-01T00:42:57.949Z,49.16
2017-04-01T00:43:19.670Z,49.40
2017-04-01T00:43:46.161Z,48.92
2017-04-01T00:44:07.898Z,49.23
2017-04-01T00:44:29.634Z,48.92
2017-04-01T00:44:51.474Z,48.88
2017-04-01T00:45:13.229Z,48.71
2017-04-01T00:45:39.774Z,48.59
2017-04-01T00:46:01.805Z,48.46
2017-04-01T00:46:23.568Z,48.53
2017-04-01T00:46:45.362Z,48.63
2017-04-01T00:47:07.169Z,48.47
2017-04-01T00:47:28.942Z,48.64
2017-04-01T00:47:50.715Z,48.21
2017-04-01T00:48:12.488Z,48.56
2017-04-01T00:48:34.271Z,48.44
2017-04-01T00:48:56.066Z,47.88
2017-04-01T00:49:17.760Z,48.19
2017-04-01T00:49:39.651Z,48.55
2017-04-01T00:50:01.433Z,48.38
2017-04-01T00:50:23.199Z,48.40
2017-04-01T00:50:45.008Z,48.89
2017-04-01T00:51:06.816Z,49.31
2017-04-01T00:51:28.630Z,49.45
2017-04-01T00:52:31.150Z,49.15
2017-04-01T00:52:52.974Z,49.20
2017-04-01T00:53:14.707Z,48.83
2017-04-01T00:53:36.450Z,48.62
2017-04-01T00:53:58.251Z,48.36
2017-04-01T00:54:20.068Z,48.19
2017-04-01T00:54:41.945Z,48.00
2017-04-01T00:55:03.702Z,48.19
2017-04-01T00:55:25.673Z,48.47
2017-04-01T00:55:47.411Z,48.46
2017-04-01T00:56:35.666Z,48.37
2017-04-01T00:56:57.433Z,48.35
2017-04-01T00:57:19.212Z,48.36
2017-04-01T00:57:40.996Z,48.20
2017-04-01T00:58:02.871Z,48.58
2017-04-01T00:58:24.625Z,48.81
2017-04-01T00:58:46.545Z,48.96
2017-04-01T00:59:08.304Z,48.79
2017-04-01T00:59:30.122Z,48.63
2017-04-01T00:59:51.974Z,48.09
2017-04-01T01:00:13.712Z,47.87
2017-04-01T01:00:35.451Z,47.68
2017-04-01T01:00:57.150Z,47.63
2017-04-01T01:01:18.905Z,47.54
2017-04-01T01:01:40.651Z,47.41
2017-04-01T01:02:02.341Z,47.32
2017-04-01T01:02:24.050Z,47.01
2017-04-01T01:02:45.867Z,47.05
2017-04-01T01:03:07.705Z,47.27
2017-04-01T01:03:29.409Z,47.09
2017-04-01T01:03:51.171Z,46.98
2017-04-01T01:04:12.901Z,47.09
2017-04-01T01:05:01.177Z,47.83
2017-04-01T01:05:23.060Z,47.68
2017-04-01T01:05:44.786Z,47.74
2017-04-01T01:06:06.540Z,48.21
2017-04-01T01:06:28.337Z,48.46
2017-04-01T01:06:50.067Z,48.29
2017-04-01T01:07:14.335Z,48.78
2017-04-01T01:07:36.108Z,48.32
2017-04-01T01:07:57.895Z,48.14
2017-04-01T01:08:19.580Z,48.42
2017-04-01T01:08:41.341Z,48.37
2017-04-01T01:09:03.121Z,48.16
2017-04-01T01:09:24.823Z,47.99
2017-04-01T01:09:46.551Z,47.98
2017-04-01T01:10:08.342Z,48.00
2017-04-01T01:10:30.188Z,49.02
2017-04-01T01:10:51.952Z,48.62
2017-04-01T01:11:13.699Z,48.27
2017-04-01T01:11:35.460Z,48.37
2017-04-01T01:11:57.266Z,48.75
2017-04-01T01:12:19.042Z,48.69
2017-04-01T01:12:40.852Z,48.98
2017-04-01T01:13:02.612Z,48.98
2017-04-01T01:13:24.410Z,49.12
2017-04-01T01:13:46.184Z,48.94
2017-04-01T01:14:08.046Z,48.06
2017-04-01T01:14:29.825Z,48.17
2017-04-01T01:14:51.651Z,48.74
2017-04-01T01:15:13.446Z,48.92
2017-04-01T01:15:35.216Z,49.01
2017-04-01T01:15:57.052Z,48.67
2017-04-01T01:16:18.870Z,47.97
2017-04-01T01:16:40.693Z,47.78
2017-04-01T01:17:07.215Z,48.16
2017-04-01T01:17:28.973Z,47.81
2017-04-01T01:17:50.779Z,47.79
2017-04-01T01:18:12.529Z,47.38
2017-04-01T01:18:34.260Z,47.18
2017-04-01T01:19:00.760Z,47.07
2017-04-01T01:19:22.584Z,46.81
2017-04-01T01:19:44.333Z,46.64
2017-04-01T01:20:06.167Z,46.37
2017-04-01T01:20:32.729Z,46.43
2017-04-01T01:20:54.598Z,46.38
2017-04-01T01:21:16.379Z,46.68
2017-04-01T01:21:38.182Z,46.71
2017-04-01T01:21:59.875Z,46.54
2017-04-01T01:23:49.102Z,46.76
2017-04-01T01:24:13.711Z,46.43
2017-04-01T01:24:35.442Z,46.26
2017-04-01T01:24:57.221Z,46.82
2017-04-01T01:25:18.939Z,47.00
2017-04-01T01:25:40.844Z,46.61
2017-04-01T01:26:02.537Z,46.22
2017-04-01T01:26:24.290Z,46.37
2017-04-01T01:26:46.145Z,46.34
2017-04-01T01:27:12.696Z,46.37
2017-04-01T01:27:34.540Z,46.71
2017-04-01T01:27:56.333Z,46.54
2017-04-01T01:29:00.675Z,46.71
2017-04-01T01:29:22.437Z,46.78
2017-04-01T01:29:44.375Z,46.71
2017-04-01T01:30:06.166Z,46.96
2017-04-01T01:30:28.033Z,47.03
2017-04-01T01:30:49.840Z,47.63
2017-04-01T01:31:11.777Z,47.75
2017-04-01T01:31:33.595Z,47.46
2017-04-01T01:31:55.540Z,47.02
2017-04-01T01:32:17.376Z,47.40
2017-04-01T01:32:39.131Z,46.80
2017-04-01T01:33:00.973Z,46.91
2017-04-01T01:33:22.740Z,46.71
2017-04-01T01:33:44.460Z,47.01
2017-04-01T01:34:06.188Z,47.26
2017-04-01T01:34:27.974Z,47.04
2017-04-01T01:34:49.736Z,46.80
2017-04-01T01:35:11.529Z,46.82
2017-04-01T01:35:33.374Z,46.61
2017-04-01T01:35:55.141Z,46.45
2017-04-01T01:37:00.368Z,46.56
2017-04-01T01:37:22.116Z,46.63
2017-04-01T01:37:43.838Z,46.88
2017-04-01T01:38:05.556Z,46.83
2017-04-01T01:38:27.330Z,47.00
2017-04-01T01:38:49.073Z,47.17
2017-04-01T01:39:10.860Z,47.25
2017-04-01T01:39:32.620Z,47.18
2017-04-01T01:39:54.389Z,46.96
2017-04-01T01:40:17.334Z,47.06
2017-04-01T01:40:43.835Z,47.30
2017-04-01T01:41:05.584Z,47.03
2017-04-01T01:41:27.739Z,46.98
2017-04-01T01:41:49.531Z,47.24
2017-04-01T01:42:11.421Z,47.17
2017-04-01T01:42:37.982Z,47.15
2017-04-01T01:42:59.756Z,46.94
2017-04-01T01:43:21.485Z,46.94
2017-04-01T01:43:43.306Z,46.86
2017-04-01T01:44:05.060Z,46.91
2017-04-01T01:44:26.901Z,46.86
2017-04-01T01:44:48.627Z,46.87
2017-04-01T01:45:37.146Z,47.06
2017-04-01T01:45:59.021Z,47.10
2017-04-01T01:46:20.786Z,46.94
2017-04-01T01:46:42.476Z,46.63
2017-04-01T01:47:04.241Z,46.51
2017-04-01T01:47:25.997Z,46.48
2017-04-01T01:48:14.076Z,46.73
2017-04-01T01:48:35.807Z,46.66
2017-04-01T01:48:57.541Z,46.61
2017-04-01T01:49:19.508Z,46.57
2017-04-01T01:49:41.243Z,46.50
2017-04-01T01:50:03.060Z,46.61
2017-04-01T01:50:24.775Z,46.50
2017-04-01T01:50:46.546Z,46.57
2017-04-01T01:51:08.346Z,46.54
2017-04-01T01:51:30.102Z,46.55
2017-04-01T01:51:51.857Z,46.85
2017-04-01T01:52:13.679Z,47.12
2017-04-01T01:52:35.535Z,47.12
2017-04-01T01:52:57.336Z,47.00
2017-04-01T01:53:19.058Z,46.82
2017-04-01T01:53:40.800Z,46.92
2017-04-01T01:54:02.573Z,46.79
2017-04-01T01:54:24.279Z,46.76
2017-04-01T01:54:46.028Z,46.92
2017-04-01T01:55:07.732Z,46.94
2017-04-01T01:55:29.490Z,47.16
2017-04-01T01:55:51.226Z,47.37
2017-04-01T01:56:12.970Z,47.60
2017-04-01T01:57:11.340Z,47.63
2017-04-01T01:57:33.026Z,47.59
2017-04-01T01:57:54.748Z,47.63
2017-04-01T01:58:16.441Z,48.27
2017-04-01T01:58:38.145Z,48.53
2017-04-01T01:58:59.880Z,48.56
2017-04-01T01:59:21.607Z,48.32
2017-04-01T01:59:43.323Z,48.38
2017-04-01T02:00:05.049Z,48.72
2017-04-01T02:00:26.778Z,49.12
2017-04-01T02:00:48.498Z,48.53
2017-04-01T02:01:10.247Z,48.35
2017-04-01T02:01:31.955Z,48.10
2017-04-01T02:01:53.689Z,48.06
2017-04-01T02:02:15.406Z,48.18
2017-04-01T02:02:37.130Z,48.12
2017-04-01T02:02:58.856Z,47.84
2017-04-01T02:03:20.585Z,47.36
2017-04-01T02:03:42.321Z,47.41
2017-04-01T02:04:04.106Z,47.08
2017-04-01T02:04:25.839Z,46.75
2017-04-01T02:04:47.573Z,46.59
2017-04-01T02:05:09.277Z,46.62
2017-04-01T02:05:30.998Z,46.53
2017-04-01T02:05:52.717Z,46.50
2017-04-01T02:06:55.816Z,46.32
2017-04-01T02:07:27.065Z,46.50
2017-04-01T02:07:48.795Z,46.75
2017-04-01T02:08:10.517Z,46.63
2017-04-01T02:08:32.239Z,46.38
2017-04-01T02:09:34.738Z,46.14
2017-04-01T02:09:56.425Z,46.05
2017-04-01T02:10:18.169Z,46.75
2017-04-01T02:10:39.890Z,47.42
2017-04-01T02:11:01.596Z,47.53
2017-04-01T02:11:23.381Z,47.44
2017-04-01T02:11:45.147Z,47.43
2017-04-01T02:12:06.876Z,47.83
2017-04-01T02:12:55.138Z,47.54
2017-04-01T02:13:16.860Z,47.36
2017-04-01T02:13:38.599Z,47.32
2017-04-01T02:14:00.305Z,47.32
2017-04-01T02:14:22.033Z,47.25
2017-04-01T02:14:43.767Z,47.30
2017-04-01T02:15:05.569Z,47.29
2017-04-01T02:15:27.296Z,47.32
2017-04-01T02:15:49.020Z,47.20
2017-04-01T02:16:10.806Z,47.18
2017-04-01T02:16:32.573Z,47.34
2017-04-01T02:16:54.303Z,47.40
2017-04-01T02:17:16.029Z,47.26
2017-04-01T02:17:37.751Z,47.11
2017-04-01T02:17:59.480Z,47.28
2017-04-01T02:18:21.211Z,47.46
2017-04-01T02:18:42.902Z,47.74
2017-04-01T02:19:04.594Z,48.19
2017-04-01T02:19:26.315Z,48.73
2017-04-01T02:19:48.014Z,48.39
2017-04-01T02:20:09.742Z,48.13
2017-04-01T02:20:31.437Z,48.09
2017-04-01T02:20:53.143Z,48.10
2017-04-01T02:21:24.399Z,48.31
2017-04-01T02:21:46.142Z,48.39
2017-04-01T02:22:07.929Z,48.06
2017-04-01T02:22:29.663Z,48.17
2017-04-01T02:22:51.389Z,48.02
2017-04-01T02:23:13.183Z,48.10
2017-04-01T02:23:34.953Z,47.85
2017-04-01T02:23:56.680Z,47.86
2017-04-01T02:24:18.413Z,48.51
2017-04-01T02:24:40.154Z,48.79
2017-04-01T02:25:42.689Z,48.94
2017-04-01T02:26:49.989Z,48.89
2017-04-01T02:27:11.710Z,48.79
2017-04-01T02:28:14.249Z,48.55
2017-04-01T02:28:35.964Z,48.82
2017-04-01T02:28:57.656Z,48.77
2017-04-01T02:29:19.383Z,49.06
2017-04-01T02:29:41.095Z,49.07
2017-04-01T02:30:02.829Z,48.92
2017-04-01T02:30:24.537Z,49.03
2017-04-01T02:30:46.257Z,49.13
2017-04-01T02:31:08.041Z,48.95
2017-04-01T02:31:39.320Z,48.96
2017-04-01T02:32:01.074Z,49.46
2017-04-01T02:32:27.566Z,49.17
2017-04-01T02:32:49.294Z,49.33
2017-04-01T02:33:15.779Z,49.33
2017-04-01T02:33:37.509Z,48.86
2017-04-01T02:34:04.008Z,48.97
2017-04-01T02:34:25.762Z,48.12
2017-04-01T02:34:52.253Z,48.29
2017-04-01T02:35:13.963Z,48.42
2017-04-01T02:35:40.455Z,48.56
2017-04-01T02:36:42.991Z,48.92
2017-04-01T02:37:14.245Z,48.76
2017-04-01T02:38:12.554Z,48.71
2017-04-01T02:38:34.260Z,48.89
2017-04-01T02:38:56.007Z,49.13
2017-04-01T02:39:17.736Z,49.34
2017-04-01T02:39:39.455Z,49.80
2017-04-01T02:40:08.919Z,50.31
2017-04-01T02:40:30.627Z,50.09
2017-04-01T02:40:52.405Z,50.27
2017-04-01T02:41:14.122Z,50.31
2017-04-01T02:41:35.863Z,50.25
2017-04-01T02:41:57.607Z,50.11
2017-04-01T02:42:19.337Z,50.10
2017-04-01T02:42:41.070Z,50.39
2017-04-01T02:43:02.791Z,50.90
2017-04-01T02:43:24.516Z,51.06
2017-04-01T02:43:46.239Z,50.94
2017-04-01T02:44:07.962Z,50.73
2017-04-01T02:44:29.684Z,50.81
2017-04-01T02:44:51.415Z,50.44
2017-04-01T02:45:13.174Z,50.33
2017-04-01T02:45:34.925Z,50.45
2017-04-01T02:45:56.669Z,50.83
2017-04-01T02:46:18.387Z,50.71
2017-04-01T02:46:40.159Z,50.96
2017-04-01T02:47:01.908Z,51.01
2017-04-01T02:47:23.643Z,51.13
2017-04-01T02:47:45.396Z,50.67
2017-04-01T02:48:07.127Z,50.69
2017-04-01T02:48:38.396Z,50.72
2017-04-01T02:49:00.108Z,50.57
2017-04-01T02:49:31.372Z,50.76
2017-04-01T02:49:53.095Z,50.63
2017-04-01T02:50:24.359Z,50.94
2017-04-01T02:50:46.079Z,50.77
2017-04-01T02:51:48.593Z,51.08
2017-04-01T02:52:10.346Z,50.70
2017-04-01T02:52:41.617Z,50.76
2017-04-01T02:53:03.346Z,51.05
2017-04-01T02:53:25.060Z,51.04
2017-04-01T02:53:51.569Z,50.77
2017-04-01T02:54:13.298Z,50.79
2017-04-01T02:54:35.033Z,50.51
2017-04-01T02:54:56.912Z,50.47
2017-04-01T02:55:18.640Z,50.91
2017-04-01T02:55:40.382Z,51.23
2017-04-01T02:56:02.095Z,51.40
2017-04-01T02:56:23.811Z,51.69
2017-04-01T02:56:45.513Z,51.36
2017-04-01T02:57:07.234Z,51.34
2017-04-01T02:58:05.579Z,50.99
2017-04-01T02:59:08.104Z,51.16
2017-04-01T02:59:34.622Z,51.53
2017-04-01T03:01:09.638Z,51.45
2017-04-01T03:02:38.718Z,51.62
2017-04-01T03:03:00.452Z,51.65
2017-04-01T03:03:22.232Z,51.57
2017-04-01T03:03:43.954Z,51.38
2017-04-01T03:04:05.656Z,51.18
2017-04-01T03:04:27.379Z,51.31
2017-04-01T03:04:49.100Z,51.21
2017-04-01T03:05:10.819Z,51.27
2017-04-01T03:05:32.525Z,50.68
2017-04-01T03:05:54.277Z,50.94
2017-04-01T03:06:16.000Z,51.40
2017-04-01T03:06:37.727Z,52.03
2017-04-01T03:06:59.456Z,51.77
2017-04-01T03:07:21.186Z,51.65
2017-04-01T03:07:42.914Z,51.64
2017-04-01T03:08:04.652Z,51.91
2017-04-01T03:08:26.436Z,51.95
2017-04-01T03:08:48.243Z,51.73
2017-04-01T03:09:09.975Z,51.69
2017-04-01T03:09:31.703Z,51.44
2017-04-01T03:09:53.447Z,51.54
2017-04-01T03:10:15.245Z,51.46
2017-04-01T03:10:36.992Z,51.52
2017-04-01T03:11:06.118Z,51.60
2017-04-01T03:11:27.921Z,51.46
2017-04-01T03:11:49.686Z,51.57
2017-04-01T03:12:11.514Z,51.76
2017-04-01T03:12:33.277Z,51.48
2017-04-01T03:12:55.069Z,51.61
2017-04-01T03:13:16.842Z,51.38
2017-04-01T03:13:38.613Z,51.15
2017-04-01T03:14:00.475Z,51.03
2017-04-01T03:14:22.245Z,50.99
2017-04-01T03:14:44.024Z,51.00
2017-04-01T03:15:46.528Z,51.34
2017-04-01T03:16:08.278Z,51.49
2017-04-01T03:16:30.037Z,51.20
2017-04-01T03:16:54.534Z,51.27
2017-04-01T03:17:16.350Z,51.24
2017-04-01T03:18:19.672Z,52.06
2017-04-01T03:18:41.436Z,52.16
2017-04-01T03:19:03.261Z,52.32
2017-04-01T03:19:24.984Z,52.38
2017-04-01T03:19:46.696Z,52.35
2017-04-01T03:20:08.502Z,52.02
2017-04-01T03:20:30.370Z,51.58
2017-04-01T03:20:52.162Z,51.30
2017-04-01T03:21:13.993Z,51.30
2017-04-01T03:21:35.838Z,51.33
2017-04-01T03:21:57.636Z,51.44
2017-04-01T03:22:19.478Z,51.44
2017-04-01T03:22:41.278Z,51.83
2017-04-01T03:23:10.235Z,51.60
2017-04-01T03:23:31.960Z,51.21
2017-04-01T03:23:53.682Z,50.93
2017-04-01T03:24:15.394Z,50.73
2017-04-01T03:24:37.093Z,50.80
2017-04-01T03:24:59.014Z,50.81
2017-04-01T03:25:20.774Z,51.07
2017-04-01T03:25:42.471Z,51.33
2017-04-01T03:26:04.210Z,51.47
2017-04-01T03:26:25.933Z,51.54
2017-04-01T03:26:47.634Z,51.93
2017-04-01T03:27:09.395Z,52.21
2017-04-01T03:27:31.122Z,52.14
2017-04-01T03:27:52.903Z,51.99
2017-04-01T03:28:14.648Z,52.11
2017-04-01T03:28:36.342Z,52.40
2017-04-01T03:28:58.059Z,52.44
2017-04-01T03:29:19.755Z,53.14
2017-04-01T03:29:41.454Z,53.49
2017-04-01T03:30:03.147Z,53.82
2017-04-01T03:30:24.845Z,53.79
2017-04-01T03:30:46.628Z,53.86
2017-04-01T03:31:08.317Z,53.90
2017-04-01T03:31:30.025Z,53.71
2017-04-01T03:31:51.898Z,53.12
2017-04-01T03:32:13.625Z,53.15
2017-04-01T03:32:35.381Z,53.18
2017-04-01T03:32:57.090Z,52.87
2017-04-01T03:33:18.851Z,52.64
2017-04-01T03:33:40.631Z,52.17
2017-04-01T03:34:02.481Z,52.08
2017-04-01T03:34:24.237Z,51.69
2017-04-01T03:34:46.017Z,51.69
2017-04-01T03:35:07.836Z,51.53
2017-04-01T03:35:29.559Z,51.54
2017-04-01T03:35:51.348Z,51.62
2017-04-01T03:36:13.106Z,51.68
2017-04-01T03:37:15.612Z,52.24
2017-04-01T03:37:37.374Z,52.49
2017-04-01T03:37:59.076Z,52.47
2017-04-01T03:38:20.801Z,52.24
2017-04-01T03:38:42.503Z,52.21
2017-04-01T03:39:04.271Z,52.36
2017-04-01T03:39:26.030Z,52.20
2017-04-01T03:39:47.856Z,52.14
2017-04-01T03:40:09.634Z,51.99
2017-04-01T03:40:31.346Z,51.96
2017-04-01T03:40:53.108Z,51.91
2017-04-01T03:41:14.872Z,51.74
2017-04-01T03:41:36.599Z,51.79
2017-04-01T03:41:58.367Z,51.88
2017-04-01T03:42:20.113Z,51.93
2017-04-01T03:42:41.950Z,51.74
2017-04-01T03:43:03.808Z,52.10
2017-04-01T03:43:25.569Z,52.58
2017-04-01T03:43:47.384Z,52.54
2017-04-01T03:44:09.182Z,52.63
2017-04-01T03:44:31.257Z,52.55
2017-04-01T03:44:53.037Z,52.75
2017-04-01T03:45:14.810Z,53.15
2017-04-01T03:45:36.783Z,53.11
2017-04-01T03:45:58.509Z,53.00
2017-04-01T03:46:23.324Z,52.57
2017-04-01T03:46:45.033Z,52.79
2017-04-01T03:47:06.732Z,52.92
2017-04-01T03:47:28.435Z,52.80
2017-04-01T03:47:50.224Z,52.97
2017-04-01T03:48:12.269Z,52.67
2017-04-01T03:48:33.981Z,52.05
2017-04-01T03:48:55.696Z,52.01
2017-04-01T03:49:17.419Z,52.40
2017-04-01T03:49:39.198Z,52.77
2017-04-01T03:50:00.943Z,53.16
2017-04-01T03:50:22.742Z,53.76
2017-04-01T03:50:44.475Z,53.44
2017-04-01T03:51:06.232Z,53.11
2017-04-01T03:51:28.063Z,52.93
2017-04-01T03:51:49.813Z,52.47
2017-04-01T03:52:11.520Z,52.31
2017-04-01T03:52:33.223Z,52.38
2017-04-01T03:52:54.981Z,52.29
2017-04-01T03:53:16.811Z,52.48
2017-04-01T03:53:38.564Z,52.86
2017-04-01T03:54:00.379Z,53.02
2017-04-01T03:54:22.244Z,53.51
2017-04-01T03:54:43.960Z,53.64
2017-04-01T03:55:05.713Z,53.62
2017-04-01T03:55:27.481Z,53.48
2017-04-01T03:55:49.227Z,53.58
2017-04-01T03:56:11.007Z,53.70
2017-04-01T03:56:32.767Z,53.78
2017-04-01T03:56:54.556Z,53.92
2017-04-01T03:57:16.245Z,53.68
2017-04-01T03:57:37.965Z,53.78
2017-04-01T03:57:59.664Z,54.09
2017-04-01T03:58:21.478Z,53.86
2017-04-01T03:58:43.212Z,53.54
2017-04-01T03:59:05.043Z,53.10
2017-04-01T03:59:26.792Z,52.94
2017-04-01T03:59:48.596Z,53.10
2017-04-01T04:00:10.436Z,53.19
2017-04-01T04:00:32.194Z,53.68
2017-04-01T04:00:53.980Z,53.73
2017-04-01T04:01:15.743Z,53.38
2017-04-01T04:01:37.538Z,53.60
2017-04-01T04:01:59.289Z,53.65
2017-04-01T04:02:21.020Z,53.67
2017-04-01T04:02:42.818Z,53.63
2017-04-01T04:03:04.580Z,53.68
2017-04-01T04:03:26.306Z,53.99
2017-04-01T04:03:48.108Z,54.04
2017-04-01T04:04:09.866Z,53.49
2017-04-01T04:04:31.601Z,53.91
2017-04-01T04:04:53.332Z,54.25
2017-04-01T04:05:15.270Z,54.42
2017-04-01T04:05:37.031Z,54.65
2017-04-01T04:05:58.769Z,54.57
2017-04-01T04:06:20.573Z,54.53
2017-04-01T04:06:42.326Z,54.41
2017-04-01T04:07:04.154Z,54.18
2017-04-01T04:07:25.970Z,54.12
2017-04-01T04:07:52.445Z,54.02
2017-04-01T04:08:14.168Z,54.13
2017-04-01T04:08:35.863Z,53.79
2017-04-01T04:08:57.622Z,53.51
2017-04-01T04:09:19.351Z,53.35
2017-04-01T04:09:41.146Z,53.29
2017-04-01T04:10:03.081Z,53.31
2017-04-01T04:10:24.833Z,53.32
2017-04-01T04:10:46.635Z,53.39
2017-04-01T04:11:08.554Z,53.30
2017-04-01T04:11:30.396Z,52.98
2017-04-01T04:12:19.100Z,53.20
2017-04-01T04:12:40.821Z,53.19
2017-04-01T04:13:02.599Z,53.26
2017-04-01T04:13:24.366Z,53.17
2017-04-01T04:13:46.105Z,53.33
2017-04-01T04:14:07.948Z,53.58
2017-04-01T04:14:29.705Z,53.84
2017-04-01T04:14:51.496Z,53.76
2017-04-01T04:15:13.295Z,53.78
2017-04-01T04:15:35.097Z,53.42
2017-04-01T04:16:01.676Z,53.45
2017-04-01T04:16:23.471Z,53.27
2017-04-01T04:16:45.198Z,53.31
2017-04-01T04:17:06.936Z,53.49
2017-04-01T04:17:28.668Z,53.47
2017-04-01T04:17:50.443Z,53.58
2017-04-01T04:18:12.199Z,53.45
2017-04-01T04:18:33.896Z,53.55
2017-04-01T04:18:55.618Z,53.63
2017-04-01T04:19:17.325Z,53.44
2017-04-01T04:19:39.032Z,53.41
2017-04-01T04:20:00.742Z,53.23
2017-04-01T04:20:22.519Z,52.93
2017-04-01T04:20:44.318Z,52.75
2017-04-01T04:21:06.112Z,52.92
2017-04-01T04:21:27.858Z,52.83
2017-04-01T04:21:49.722Z,53.01
2017-04-01T04:22:11.668Z,52.82
2017-04-01T04:22:36.354Z,52.71
2017-04-01T04:23:38.891Z,52.65
2017-04-01T04:24:00.628Z,52.79
2017-04-01T04:24:22.790Z,52.63
2017-04-01T04:24:44.508Z,52.89
2017-04-01T04:25:06.203Z,52.72
2017-04-01T04:25:27.899Z,52.67
2017-04-01T04:25:49.675Z,52.47
2017-04-01T04:26:11.468Z,52.37
2017-04-01T04:26:33.241Z,52.46
2017-04-01T04:26:54.946Z,52.53
2017-04-01T04:27:16.717Z,52.46
2017-04-01T04:27:38.481Z,52.72
2017-04-01T04:28:00.170Z,52.83
2017-04-01T04:28:22.249Z,52.99
2017-04-01T04:29:24.767Z,52.55
2017-04-01T04:29:46.516Z,52.51
2017-04-01T04:30:08.305Z,52.42
2017-04-01T04:30:30.077Z,52.32
2017-04-01T04:30:51.895Z,52.49
2017-04-01T04:31:14.465Z,52.96
2017-04-01T04:31:36.214Z,53.33
2017-04-01T04:31:58.057Z,53.68
2017-04-01T04:32:19.810Z,53.80
2017-04-01T04:32:41.647Z,53.86
2017-04-01T04:33:03.451Z,53.84
2017-04-01T04:33:25.353Z,53.74
2017-04-01T04:33:47.087Z,53.75
2017-04-01T04:34:08.927Z,53.96
2017-04-01T04:34:30.665Z,54.53
2017-04-01T04:34:55.290Z,54.44
2017-04-01T04:35:17.042Z,54.21
2017-04-01T04:35:38.878Z,54.34
2017-04-01T04:36:00.645Z,54.08
2017-04-01T04:36:22.428Z,54.05
2017-04-01T04:36:44.209Z,54.08
2017-04-01T04:37:06.956Z,53.98
2017-04-01T04:37:28.707Z,53.92
2017-04-01T04:37:50.465Z,53.97
2017-04-01T04:38:12.278Z,53.88
2017-04-01T04:38:34.041Z,53.96
2017-04-01T04:38:55.794Z,54.02
2017-04-01T04:39:17.550Z,53.64
2017-04-01T04:39:39.446Z,53.53
2017-04-01T04:40:01.213Z,53.61
2017-04-01T04:40:23.095Z,53.38
2017-04-01T04:40:44.848Z,53.57
2017-04-01T04:41:06.614Z,53.64
2017-04-01T04:41:54.964Z,54.45
2017-04-01T04:42:16.685Z,54.58
2017-04-01T04:42:38.451Z,54.62
2017-04-01T04:43:00.343Z,54.65
2017-04-01T04:43:22.178Z,54.74
2017-04-01T04:43:43.876Z,54.58
2017-04-01T04:44:05.625Z,54.46
2017-04-01T04:44:27.370Z,54.35
2017-04-01T04:44:49.099Z,54.66
2017-04-01T04:45:10.855Z,55.18
2017-04-01T04:45:32.650Z,55.25
2017-04-01T04:45:54.525Z,55.32
2017-04-01T04:46:16.353Z,55.00
2017-04-01T04:47:19.052Z,54.40
2017-04-01T04:47:40.910Z,54.40
2017-04-01T04:48:02.662Z,54.40
2017-04-01T04:48:51.187Z,54.60
2017-04-01T04:49:12.929Z,54.59
2017-04-01T04:49:34.750Z,54.64
2017-04-01T04:49:56.588Z,54.68
2017-04-01T04:50:18.602Z,55.01
2017-04-01T04:50:41.471Z,55.43
2017-04-01T04:51:03.252Z,55.13
2017-04-01T04:51:25.051Z,55.15
2017-04-01T04:51:46.899Z,55.23
2017-04-01T04:52:09.035Z,55.24
2017-04-01T04:52:30.651Z,55.09
2017-04-01T04:52:52.462Z,54.84
2017-04-01T04:53:14.213Z,54.90
2017-04-01T04:53:35.971Z,55.15
2017-04-01T04:53:57.709Z,55.27
2017-04-01T04:54:26.975Z,55.60
2017-04-01T04:54:48.731Z,55.71
2017-04-01T04:55:10.577Z,55.86
2017-04-01T04:55:32.327Z,55.71
2017-04-01T04:55:54.168Z,55.75
2017-04-01T04:56:16.086Z,55.70
2017-04-01T04:56:37.820Z,55.66
2017-04-01T04:56:59.553Z,55.77
2017-04-01T04:57:21.318Z,55.61
2017-04-01T04:57:43.066Z,55.82
2017-04-01T04:58:04.824Z,56.41
2017-04-01T04:58:26.584Z,56.45
2017-04-01T04:58:48.340Z,56.36
2017-04-01T04:59:10.130Z,56.56
2017-04-01T04:59:31.900Z,56.41
2017-04-01T04:59:53.670Z,56.28
2017-04-01T05:00:15.417Z,55.94
2017-04-01T05:00:37.168Z,56.11
2017-04-01T05:00:58.923Z,55.94
2017-04-01T05:01:20.693Z,56.17
2017-04-01T05:01:42.529Z,56.45
2017-04-01T05:02:04.438Z,56.25
2017-04-01T05:02:26.161Z,56.66
2017-04-01T05:02:47.945Z,56.21
2017-04-01T05:03:09.763Z,56.29
2017-04-01T05:03:31.497Z,56.51
2017-04-01T05:03:53.509Z,56.54
2017-04-01T05:04:15.262Z,56.34
2017-04-01T05:04:37.148Z,56.21
2017-04-01T05:04:58.979Z,55.96
2017-04-01T05:05:20.691Z,55.88
2017-04-01T05:05:42.408Z,55.66
2017-04-01T05:06:04.121Z,55.54
2017-04-01T05:06:25.878Z,55.39
2017-04-01T05:06:47.604Z,55.51
2017-04-01T05:07:09.489Z,55.48
2017-04-01T05:07:31.265Z,55.26
2017-04-01T05:07:53.014Z,55.39
2017-04-01T05:09:00.145Z,55.93
2017-04-01T05:09:21.851Z,55.79
2017-04-01T05:09:43.562Z,55.87
2017-04-01T05:10:05.276Z,56.22
2017-04-01T05:10:27.086Z,56.29
2017-04-01T05:10:48.856Z,56.28
2017-04-01T05:11:10.629Z,56.28
2017-04-01T05:11:32.454Z,56.30
2017-04-01T05:11:54.181Z,56.20
2017-04-01T05:12:16.040Z,56.01